sensor_id;sensor_type;location;lat;lon;timestamp;P1;durP1;ratioP1;P2;durP2;ratioP2
69260;SDS011;56378;52.404;20.816;2022-10-16T00:01:10;20.85;;;11.63;;
69260;SDS011;56378;52.404;20.816;2022-10-16T00:03:38;18.80;;;11.65;;
69260;SDS011;56378;52.404;20.816;2022-10-16T00:06:05;19.83;;;11.37;;
69260;SDS011;56378;52.404;20.816;2022-10-16T00:08:32;20.02;;;11.55;;
69260;SDS011;56378;52.404;20.816;2022-10-16T00:11:17;20.77;;;11.40;;
69260;SDS011;56378;52.404;20.816;2022-10-16T00:13:48;19.73;;;10.95;;
69260;SDS011;56378;52.404;20.816;2022-10-16T00:16:17;20.08;;;11.80;;
69260;SDS011;56378;52.404;20.816;2022-10-16T00:18:43;20.17;;;12.00;;
69260;SDS011;56378;52.404;20.816;2022-10-16T00:21:10;18.10;;;10.95;;
69260;SDS011;56378;52.404;20.816;2022-10-16T00:23:38;22.27;;;12.82;;
69260;SDS011;56378;52.404;20.816;2022-10-16T00:26:05;23.63;;;12.10;;
69260;SDS011;56378;52.404;20.816;2022-10-16T00:28:33;19.90;;;11.85;;
69260;SDS011;56378;52.404;20.816;2022-10-16T00:31:02;20.47;;;11.53;;
69260;SDS011;56378;52.404;20.816;2022-10-16T00:33:28;20.17;;;11.60;;
69260;SDS011;56378;52.404;20.816;2022-10-16T00:35:57;22.00;;;11.98;;
69260;SDS011;56378;52.404;20.816;2022-10-16T00:38:23;20.20;;;11.90;;
69260;SDS011;56378;52.404;20.816;2022-10-16T00:40:49;21.90;;;12.43;;
69260;SDS011;56378;52.404;20.816;2022-10-16T00:46:23;22.02;;;11.88;;
69260;SDS011;56378;52.404;20.816;2022-10-16T00:49:08;20.13;;;11.40;;
69260;SDS011;56378;52.404;20.816;2022-10-16T00:51:44;23.73;;;12.23;;
69260;SDS011;56378;52.404;20.816;2022-10-16T00:54:33;26.17;;;12.05;;
69260;SDS011;56378;52.404;20.816;2022-10-16T00:57:03;22.77;;;12.00;;
69260;SDS011;56378;52.404;20.816;2022-10-16T00:59:32;22.27;;;11.80;;
69260;SDS011;56378;52.404;20.816;2022-10-16T01:02:04;23.10;;;12.20;;
69260;SDS011;56378;52.404;20.816;2022-10-16T01:04:36;21.92;;;11.63;;
69260;SDS011;56378;52.404;20.816;2022-10-16T01:12:40;20.67;;;11.27;;
69260;SDS011;56378;52.404;20.816;2022-10-16T01:21:08;20.88;;;11.13;;
69260;SDS011;56378;52.404;20.816;2022-10-16T01:26:36;19.08;;;11.02;;
69260;SDS011;56378;52.404;20.816;2022-10-16T01:29:24;18.10;;;10.68;;
69260;SDS011;56378;52.404;20.816;2022-10-16T01:35:11;20.23;;;10.73;;
69260;SDS011;56378;52.404;20.816;2022-10-16T01:38:10;18.40;;;10.43;;
69260;SDS011;56378;52.404;20.816;2022-10-16T01:40:37;17.38;;;10.15;;
69260;SDS011;56378;52.404;20.816;2022-10-16T01:43:10;15.93;;;9.50;;
69260;SDS011;56378;52.404;20.816;2022-10-16T01:45:40;17.92;;;10.18;;
69260;SDS011;56378;52.404;20.816;2022-10-16T01:48:09;17.92;;;9.75;;
69260;SDS011;56378;52.404;20.816;2022-10-16T01:50:39;18.50;;;9.63;;
69260;SDS011;56378;52.404;20.816;2022-10-16T01:53:09;18.15;;;9.45;;
69260;SDS011;56378;52.404;20.816;2022-10-16T01:55:39;18.85;;;10.23;;
69260;SDS011;56378;52.404;20.816;2022-10-16T01:58:10;19.70;;;10.15;;
69260;SDS011;56378;52.404;20.816;2022-10-16T02:00:39;17.63;;;9.98;;
69260;SDS011;56378;52.404;20.816;2022-10-16T02:03:08;17.93;;;10.17;;
69260;SDS011;56378;52.404;20.816;2022-10-16T02:05:39;19.48;;;10.02;;
69260;SDS011;56378;52.404;20.816;2022-10-16T02:08:11;15.68;;;9.55;;
69260;SDS011;56378;52.404;20.816;2022-10-16T02:10:37;18.38;;;10.60;;
69260;SDS011;56378;52.404;20.816;2022-10-16T02:13:06;16.77;;;9.52;;
69260;SDS011;56378;52.404;20.816;2022-10-16T02:15:42;16.00;;;9.50;;
69260;SDS011;56378;52.404;20.816;2022-10-16T02:18:08;16.15;;;9.88;;
69260;SDS011;56378;52.404;20.816;2022-10-16T02:23:39;17.55;;;9.07;;
69260;SDS011;56378;52.404;20.816;2022-10-16T02:26:18;16.17;;;8.63;;
69260;SDS011;56378;52.404;20.816;2022-10-16T02:28:59;16.73;;;9.13;;
69260;SDS011;56378;52.404;20.816;2022-10-16T02:31:31;18.38;;;9.25;;
69260;SDS011;56378;52.404;20.816;2022-10-16T02:34:00;16.73;;;8.88;;
69260;SDS011;56378;52.404;20.816;2022-10-16T02:36:30;17.42;;;9.13;;
69260;SDS011;56378;52.404;20.816;2022-10-16T02:38:57;15.60;;;9.43;;
69260;SDS011;56378;52.404;20.816;2022-10-16T02:41:25;15.20;;;8.80;;
69260;SDS011;56378;52.404;20.816;2022-10-16T02:43:51;18.83;;;9.68;;
69260;SDS011;56378;52.404;20.816;2022-10-16T02:46:17;17.80;;;9.68;;
69260;SDS011;56378;52.404;20.816;2022-10-16T02:48:44;16.17;;;9.20;;
69260;SDS011;56378;52.404;20.816;2022-10-16T02:51:09;18.13;;;8.80;;
69260;SDS011;56378;52.404;20.816;2022-10-16T02:53:35;19.90;;;9.60;;
69260;SDS011;56378;52.404;20.816;2022-10-16T02:56:01;16.13;;;9.37;;
69260;SDS011;56378;52.404;20.816;2022-10-16T02:58:26;18.37;;;9.20;;
69260;SDS011;56378;52.404;20.816;2022-10-16T03:00:52;16.53;;;9.27;;
69260;SDS011;56378;52.404;20.816;2022-10-16T03:03:18;14.45;;;9.15;;
69260;SDS011;56378;52.404;20.816;2022-10-16T03:05:44;16.67;;;9.10;;
69260;SDS011;56378;52.404;20.816;2022-10-16T03:08:11;15.65;;;9.05;;
69260;SDS011;56378;52.404;20.816;2022-10-16T03:10:37;16.00;;;9.27;;
69260;SDS011;56378;52.404;20.816;2022-10-16T03:13:03;16.47;;;9.73;;
69260;SDS011;56378;52.404;20.816;2022-10-16T03:15:28;17.70;;;10.00;;
69260;SDS011;56378;52.404;20.816;2022-10-16T03:17:54;18.40;;;9.93;;
69260;SDS011;56378;52.404;20.816;2022-10-16T03:20:22;18.87;;;10.70;;
69260;SDS011;56378;52.404;20.816;2022-10-16T03:22:48;17.60;;;9.23;;
69260;SDS011;56378;52.404;20.816;2022-10-16T03:25:14;18.88;;;9.93;;
69260;SDS011;56378;52.404;20.816;2022-10-16T03:27:40;18.23;;;9.93;;
69260;SDS011;56378;52.404;20.816;2022-10-16T03:30:06;17.80;;;9.45;;
69260;SDS011;56378;52.404;20.816;2022-10-16T03:32:32;16.60;;;9.70;;
69260;SDS011;56378;52.404;20.816;2022-10-16T03:34:58;19.87;;;9.87;;
69260;SDS011;56378;52.404;20.816;2022-10-16T03:37:24;16.90;;;10.07;;
69260;SDS011;56378;52.404;20.816;2022-10-16T03:39:49;16.43;;;9.77;;
69260;SDS011;56378;52.404;20.816;2022-10-16T03:42:15;19.80;;;10.30;;
69260;SDS011;56378;52.404;20.816;2022-10-16T03:44:44;18.80;;;9.73;;
69260;SDS011;56378;52.404;20.816;2022-10-16T03:47:10;17.88;;;9.52;;
69260;SDS011;56378;52.404;20.816;2022-10-16T03:49:36;18.00;;;9.93;;
69260;SDS011;56378;52.404;20.816;2022-10-16T03:52:02;17.48;;;10.40;;
69260;SDS011;56378;52.404;20.816;2022-10-16T03:54:27;20.03;;;11.10;;
69260;SDS011;56378;52.404;20.816;2022-10-16T03:56:53;18.80;;;10.80;;
69260;SDS011;56378;52.404;20.816;2022-10-16T03:59:19;18.73;;;10.57;;
69260;SDS011;56378;52.404;20.816;2022-10-16T04:01:44;22.00;;;10.70;;
69260;SDS011;56378;52.404;20.816;2022-10-16T04:04:10;18.35;;;10.68;;
69260;SDS011;56378;52.404;20.816;2022-10-16T04:06:36;20.00;;;10.80;;
69260;SDS011;56378;52.404;20.816;2022-10-16T04:09:02;22.42;;;10.77;;
69260;SDS011;56378;52.404;20.816;2022-10-16T04:11:28;21.07;;;10.57;;
69260;SDS011;56378;52.404;20.816;2022-10-16T04:13:53;17.27;;;10.05;;
69260;SDS011;56378;52.404;20.816;2022-10-16T04:16:19;18.75;;;9.90;;
69260;SDS011;56378;52.404;20.816;2022-10-16T04:18:45;21.47;;;10.73;;
69260;SDS011;56378;52.404;20.816;2022-10-16T04:21:11;18.38;;;10.68;;
69260;SDS011;56378;52.404;20.816;2022-10-16T04:23:36;21.30;;;10.63;;
69260;SDS011;56378;52.404;20.816;2022-10-16T04:26:02;22.20;;;10.98;;
69260;SDS011;56378;52.404;20.816;2022-10-16T04:28:28;21.13;;;11.07;;
69260;SDS011;56378;52.404;20.816;2022-10-16T04:30:54;23.95;;;11.90;;
69260;SDS011;56378;52.404;20.816;2022-10-16T04:33:20;20.05;;;11.80;;
69260;SDS011;56378;52.404;20.816;2022-10-16T04:35:45;19.80;;;11.13;;
69260;SDS011;56378;52.404;20.816;2022-10-16T04:38:11;23.35;;;11.57;;
69260;SDS011;56378;52.404;20.816;2022-10-16T04:40:40;21.07;;;11.30;;
69260;SDS011;56378;52.404;20.816;2022-10-16T04:43:07;19.35;;;10.48;;
69260;SDS011;56378;52.404;20.816;2022-10-16T04:45:33;19.52;;;11.43;;
69260;SDS011;56378;52.404;20.816;2022-10-16T04:47:59;19.43;;;11.50;;
69260;SDS011;56378;52.404;20.816;2022-10-16T04:50:25;19.80;;;11.30;;
69260;SDS011;56378;52.404;20.816;2022-10-16T04:52:51;21.42;;;11.43;;
69260;SDS011;56378;52.404;20.816;2022-10-16T04:55:17;17.93;;;11.13;;
69260;SDS011;56378;52.404;20.816;2022-10-16T04:57:42;19.70;;;10.80;;
69260;SDS011;56378;52.404;20.816;2022-10-16T05:00:08;20.33;;;11.43;;
69260;SDS011;56378;52.404;20.816;2022-10-16T05:02:34;23.70;;;11.55;;
69260;SDS011;56378;52.404;20.816;2022-10-16T05:05:00;19.77;;;11.35;;
69260;SDS011;56378;52.404;20.816;2022-10-16T05:07:26;22.63;;;11.80;;
69260;SDS011;56378;52.404;20.816;2022-10-16T05:09:52;21.38;;;11.20;;
69260;SDS011;56378;52.404;20.816;2022-10-16T05:12:18;19.50;;;10.63;;
69260;SDS011;56378;52.404;20.816;2022-10-16T05:14:44;23.67;;;11.93;;
69260;SDS011;56378;52.404;20.816;2022-10-16T05:17:10;23.77;;;11.05;;
69260;SDS011;56378;52.404;20.816;2022-10-16T05:19:35;21.80;;;11.37;;
69260;SDS011;56378;52.404;20.816;2022-10-16T05:22:01;23.13;;;11.75;;
69260;SDS011;56378;52.404;20.816;2022-10-16T05:24:27;24.10;;;11.87;;
69260;SDS011;56378;52.404;20.816;2022-10-16T05:26:53;21.63;;;11.43;;
69260;SDS011;56378;52.404;20.816;2022-10-16T05:29:19;23.42;;;11.55;;
69260;SDS011;56378;52.404;20.816;2022-10-16T05:31:45;23.75;;;12.98;;
69260;SDS011;56378;52.404;20.816;2022-10-16T05:34:10;25.60;;;12.17;;
69260;SDS011;56378;52.404;20.816;2022-10-16T05:36:39;26.40;;;12.73;;
69260;SDS011;56378;52.404;20.816;2022-10-16T05:39:05;22.83;;;11.77;;
69260;SDS011;56378;52.404;20.816;2022-10-16T05:41:31;25.80;;;12.77;;
69260;SDS011;56378;52.404;20.816;2022-10-16T05:43:56;22.23;;;12.17;;
69260;SDS011;56378;52.404;20.816;2022-10-16T05:46:22;22.92;;;13.02;;
69260;SDS011;56378;52.404;20.816;2022-10-16T05:48:48;24.53;;;13.43;;
69260;SDS011;56378;52.404;20.816;2022-10-16T05:51:16;27.25;;;13.25;;
69260;SDS011;56378;52.404;20.816;2022-10-16T05:53:42;25.38;;;13.20;;
69260;SDS011;56378;52.404;20.816;2022-10-16T05:56:09;24.40;;;12.37;;
69260;SDS011;56378;52.404;20.816;2022-10-16T05:58:36;26.23;;;13.35;;
69260;SDS011;56378;52.404;20.816;2022-10-16T06:01:07;25.23;;;13.75;;
69260;SDS011;56378;52.404;20.816;2022-10-16T06:03:35;24.05;;;13.05;;
69260;SDS011;56378;52.404;20.816;2022-10-16T06:06:11;27.77;;;13.43;;
69260;SDS011;56378;52.404;20.816;2022-10-16T06:08:42;26.73;;;13.75;;
69260;SDS011;56378;52.404;20.816;2022-10-16T06:11:10;26.38;;;13.63;;
69260;SDS011;56378;52.404;20.816;2022-10-16T06:13:40;24.88;;;12.90;;
69260;SDS011;56378;52.404;20.816;2022-10-16T06:16:07;25.23;;;12.63;;
69260;SDS011;56378;52.404;20.816;2022-10-16T06:18:35;21.80;;;12.37;;
69260;SDS011;56378;52.404;20.816;2022-10-16T06:21:06;24.73;;;12.45;;
69260;SDS011;56378;52.404;20.816;2022-10-16T06:23:36;26.95;;;12.85;;
69260;SDS011;56378;52.404;20.816;2022-10-16T06:26:09;24.25;;;12.65;;
69260;SDS011;56378;52.404;20.816;2022-10-16T06:28:37;20.58;;;11.63;;
69260;SDS011;56378;52.404;20.816;2022-10-16T06:31:03;21.40;;;11.80;;
69260;SDS011;56378;52.404;20.816;2022-10-16T06:33:31;21.38;;;11.73;;
69260;SDS011;56378;52.404;20.816;2022-10-16T06:36:00;19.17;;;11.77;;
69260;SDS011;56378;52.404;20.816;2022-10-16T06:38:30;21.00;;;11.82;;
69260;SDS011;56378;52.404;20.816;2022-10-16T06:40:57;21.33;;;12.27;;
69260;SDS011;56378;52.404;20.816;2022-10-16T06:43:23;21.38;;;12.13;;
69260;SDS011;56378;52.404;20.816;2022-10-16T06:45:53;20.08;;;11.52;;
69260;SDS011;56378;52.404;20.816;2022-10-16T06:48:19;19.75;;;11.88;;
69260;SDS011;56378;52.404;20.816;2022-10-16T06:50:59;19.15;;;11.60;;
69260;SDS011;56378;52.404;20.816;2022-10-16T06:53:28;22.53;;;12.40;;
69260;SDS011;56378;52.404;20.816;2022-10-16T06:55:55;19.20;;;11.20;;
69260;SDS011;56378;52.404;20.816;2022-10-16T06:58:21;20.83;;;12.13;;
69260;SDS011;56378;52.404;20.816;2022-10-16T07:00:47;21.50;;;11.32;;
69260;SDS011;56378;52.404;20.816;2022-10-16T07:03:13;19.90;;;10.90;;
69260;SDS011;56378;52.404;20.816;2022-10-16T07:05:40;20.02;;;11.05;;
69260;SDS011;56378;52.404;20.816;2022-10-16T07:08:06;18.88;;;10.48;;
69260;SDS011;56378;52.404;20.816;2022-10-16T07:10:33;19.88;;;10.90;;
69260;SDS011;56378;52.404;20.816;2022-10-16T07:12:59;17.88;;;10.80;;
69260;SDS011;56378;52.404;20.816;2022-10-16T07:15:25;19.93;;;10.07;;
69260;SDS011;56378;52.404;20.816;2022-10-16T07:17:51;20.05;;;9.82;;
69260;SDS011;56378;52.404;20.816;2022-10-16T07:20:17;16.90;;;9.85;;
69260;SDS011;56378;52.404;20.816;2022-10-16T07:22:43;17.42;;;10.07;;
69260;SDS011;56378;52.404;20.816;2022-10-16T07:25:09;16.57;;;9.63;;
69260;SDS011;56378;52.404;20.816;2022-10-16T07:27:36;18.63;;;10.37;;
69260;SDS011;56378;52.404;20.816;2022-10-16T07:30:03;21.05;;;10.38;;
69260;SDS011;56378;52.404;20.816;2022-10-16T07:32:29;17.55;;;10.77;;
69260;SDS011;56378;52.404;20.816;2022-10-16T07:35:02;17.45;;;9.80;;
69260;SDS011;56378;52.404;20.816;2022-10-16T07:37:28;19.17;;;10.57;;
69260;SDS011;56378;52.404;20.816;2022-10-16T07:39:54;16.40;;;10.00;;
69260;SDS011;56378;52.404;20.816;2022-10-16T07:42:19;18.40;;;10.60;;
69260;SDS011;56378;52.404;20.816;2022-10-16T07:44:45;19.73;;;10.20;;
69260;SDS011;56378;52.404;20.816;2022-10-16T07:47:11;16.50;;;10.13;;
69260;SDS011;56378;52.404;20.816;2022-10-16T07:49:37;20.73;;;10.27;;
69260;SDS011;56378;52.404;20.816;2022-10-16T07:52:02;26.00;;;10.40;;
69260;SDS011;56378;52.404;20.816;2022-10-16T07:54:28;18.70;;;9.97;;
69260;SDS011;56378;52.404;20.816;2022-10-16T07:56:54;16.85;;;10.57;;
69260;SDS011;56378;52.404;20.816;2022-10-16T07:59:20;17.85;;;10.68;;
69260;SDS011;56378;52.404;20.816;2022-10-16T08:01:46;18.23;;;10.73;;
69260;SDS011;56378;52.404;20.816;2022-10-16T08:04:11;17.15;;;10.13;;
69260;SDS011;56378;52.404;20.816;2022-10-16T08:06:37;18.70;;;9.93;;
69260;SDS011;56378;52.404;20.816;2022-10-16T08:09:05;21.35;;;11.38;;
69260;SDS011;56378;52.404;20.816;2022-10-16T08:11:32;18.23;;;11.00;;
69260;SDS011;56378;52.404;20.816;2022-10-16T08:13:58;19.27;;;10.93;;
69260;SDS011;56378;52.404;20.816;2022-10-16T08:16:23;17.52;;;9.93;;
69260;SDS011;56378;52.404;20.816;2022-10-16T08:18:49;17.93;;;10.37;;
69260;SDS011;56378;52.404;20.816;2022-10-16T08:21:17;17.50;;;10.40;;
69260;SDS011;56378;52.404;20.816;2022-10-16T08:23:44;20.63;;;11.27;;
69260;SDS011;56378;52.404;20.816;2022-10-16T08:26:10;18.20;;;11.13;;
69260;SDS011;56378;52.404;20.816;2022-10-16T08:28:37;21.47;;;11.00;;
69260;SDS011;56378;52.404;20.816;2022-10-16T08:31:07;17.77;;;10.85;;
69260;SDS011;56378;52.404;20.816;2022-10-16T08:33:38;16.13;;;9.90;;
69260;SDS011;56378;52.404;20.816;2022-10-16T08:36:05;18.13;;;10.68;;
69260;SDS011;56378;52.404;20.816;2022-10-16T08:38:33;17.38;;;10.35;;
69260;SDS011;56378;52.404;20.816;2022-10-16T08:46:45;18.25;;;10.18;;
69260;SDS011;56378;52.404;20.816;2022-10-16T08:49:50;20.85;;;10.93;;
69260;SDS011;56378;52.404;20.816;2022-10-16T08:52:25;19.80;;;10.98;;
69260;SDS011;56378;52.404;20.816;2022-10-16T08:54:55;16.77;;;10.07;;
69260;SDS011;56378;52.404;20.816;2022-10-16T08:57:22;17.52;;;10.27;;
69260;SDS011;56378;52.404;20.816;2022-10-16T08:59:51;20.35;;;9.85;;
69260;SDS011;56378;52.404;20.816;2022-10-16T09:02:32;19.15;;;10.48;;
69260;SDS011;56378;52.404;20.816;2022-10-16T09:15:35;19.67;;;11.17;;
69260;SDS011;56378;52.404;20.816;2022-10-16T09:18:25;17.83;;;10.70;;
69260;SDS011;56378;52.404;20.816;2022-10-16T09:23:40;19.02;;;10.25;;
69260;SDS011;56378;52.404;20.816;2022-10-16T09:26:09;17.53;;;9.93;;
69260;SDS011;56378;52.404;20.816;2022-10-16T09:28:37;16.42;;;10.63;;
69260;SDS011;56378;52.404;20.816;2022-10-16T09:31:02;15.17;;;9.77;;
69260;SDS011;56378;52.404;20.816;2022-10-16T09:33:29;17.80;;;9.60;;
69260;SDS011;56378;52.404;20.816;2022-10-16T09:36:06;17.95;;;9.48;;
69260;SDS011;56378;52.404;20.816;2022-10-16T09:56:37;14.85;;;8.73;;
69260;SDS011;56378;52.404;20.816;2022-10-16T10:06:22;14.15;;;8.13;;
69260;SDS011;56378;52.404;20.816;2022-10-16T10:08:54;15.98;;;8.45;;
69260;SDS011;56378;52.404;20.816;2022-10-16T10:14:13;15.07;;;9.17;;
69260;SDS011;56378;52.404;20.816;2022-10-16T10:16:52;15.38;;;8.82;;
69260;SDS011;56378;52.404;20.816;2022-10-16T10:19:37;13.88;;;8.50;;
69260;SDS011;56378;52.404;20.816;2022-10-16T10:35:38;15.93;;;8.77;;
69260;SDS011;56378;52.404;20.816;2022-10-16T10:49:25;14.98;;;8.52;;
69260;SDS011;56378;52.404;20.816;2022-10-16T10:57:40;16.70;;;9.33;;
69260;SDS011;56378;52.404;20.816;2022-10-16T11:06:16;16.92;;;9.70;;
69260;SDS011;56378;52.404;20.816;2022-10-16T11:11:54;14.87;;;9.37;;
69260;SDS011;56378;52.404;20.816;2022-10-16T11:20:42;19.05;;;9.50;;
69260;SDS011;56378;52.404;20.816;2022-10-16T11:25:46;16.07;;;9.37;;
69260;SDS011;56378;52.404;20.816;2022-10-16T11:28:14;16.23;;;9.60;;
69260;SDS011;56378;52.404;20.816;2022-10-16T11:34:05;16.00;;;9.43;;
69260;SDS011;56378;52.404;20.816;2022-10-16T11:36:44;16.23;;;9.27;;
69260;SDS011;56378;52.404;20.816;2022-10-16T11:49:42;14.98;;;8.85;;
69260;SDS011;56378;52.404;20.816;2022-10-16T11:52:17;17.00;;;8.80;;
69260;SDS011;56378;52.404;20.816;2022-10-16T12:00:36;15.10;;;9.50;;
69260;SDS011;56378;52.404;20.816;2022-10-16T12:03:26;17.95;;;10.07;;
69260;SDS011;56378;52.404;20.816;2022-10-16T12:06:48;15.70;;;9.37;;
69260;SDS011;56378;52.404;20.816;2022-10-16T12:09:15;16.65;;;9.45;;
69260;SDS011;56378;52.404;20.816;2022-10-16T12:11:53;16.73;;;9.02;;
69260;SDS011;56378;52.404;20.816;2022-10-16T12:19:17;16.00;;;9.27;;
69260;SDS011;56378;52.404;20.816;2022-10-16T12:21:45;15.35;;;9.13;;
69260;SDS011;56378;52.404;20.816;2022-10-16T12:26:57;15.40;;;8.82;;
69260;SDS011;56378;52.404;20.816;2022-10-16T12:32:03;16.17;;;9.07;;
69260;SDS011;56378;52.404;20.816;2022-10-16T12:39:51;15.95;;;9.07;;
69260;SDS011;56378;52.404;20.816;2022-10-16T12:44:55;13.83;;;8.27;;
69260;SDS011;56378;52.404;20.816;2022-10-16T12:47:22;14.52;;;8.85;;
69260;SDS011;56378;52.404;20.816;2022-10-16T12:50:00;14.30;;;8.00;;
69260;SDS011;56378;52.404;20.816;2022-10-16T12:52:36;14.97;;;8.63;;
69260;SDS011;56378;52.404;20.816;2022-10-16T12:55:03;13.70;;;8.03;;
69260;SDS011;56378;52.404;20.816;2022-10-16T12:57:55;13.15;;;7.85;;
69260;SDS011;56378;52.404;20.816;2022-10-16T13:00:45;14.27;;;8.45;;
69260;SDS011;56378;52.404;20.816;2022-10-16T13:13:41;14.20;;;8.27;;
69260;SDS011;56378;52.404;20.816;2022-10-16T13:18:47;15.57;;;8.45;;
69260;SDS011;56378;52.404;20.816;2022-10-16T13:21:56;13.87;;;8.03;;
69260;SDS011;56378;52.404;20.816;2022-10-16T13:29:58;14.48;;;8.35;;
69260;SDS011;56378;52.404;20.816;2022-10-16T13:32:38;13.75;;;8.10;;
69260;SDS011;56378;52.404;20.816;2022-10-16T13:35:24;13.97;;;7.93;;
69260;SDS011;56378;52.404;20.816;2022-10-16T13:38:02;14.30;;;8.77;;
69260;SDS011;56378;52.404;20.816;2022-10-16T13:40:29;13.52;;;8.38;;
69260;SDS011;56378;52.404;20.816;2022-10-16T13:42:55;14.80;;;9.20;;
69260;SDS011;56378;52.404;20.816;2022-10-16T13:45:24;14.77;;;8.60;;
69260;SDS011;56378;52.404;20.816;2022-10-16T13:48:12;14.82;;;8.32;;
69260;SDS011;56378;52.404;20.816;2022-10-16T13:50:37;15.23;;;8.30;;
69260;SDS011;56378;52.404;20.816;2022-10-16T13:53:06;14.77;;;8.97;;
69260;SDS011;56378;52.404;20.816;2022-10-16T13:55:37;14.48;;;8.90;;
69260;SDS011;56378;52.404;20.816;2022-10-16T13:58:13;14.80;;;9.07;;
69260;SDS011;56378;52.404;20.816;2022-10-16T14:00:39;14.73;;;8.65;;
69260;SDS011;56378;52.404;20.816;2022-10-16T14:03:17;14.48;;;8.68;;
69260;SDS011;56378;52.404;20.816;2022-10-16T14:05:55;14.02;;;8.45;;
69260;SDS011;56378;52.404;20.816;2022-10-16T14:08:24;13.93;;;8.80;;
69260;SDS011;56378;52.404;20.816;2022-10-16T14:11:31;16.00;;;9.03;;
69260;SDS011;56378;52.404;20.816;2022-10-16T14:14:12;14.43;;;8.52;;
69260;SDS011;56378;52.404;20.816;2022-10-16T14:16:42;14.43;;;8.35;;
69260;SDS011;56378;52.404;20.816;2022-10-16T14:19:22;15.70;;;9.80;;
69260;SDS011;56378;52.404;20.816;2022-10-16T14:21:52;18.33;;;9.88;;
69260;SDS011;56378;52.404;20.816;2022-10-16T14:24:52;16.87;;;9.87;;
69260;SDS011;56378;52.404;20.816;2022-10-16T14:27:28;16.83;;;9.43;;
69260;SDS011;56378;52.404;20.816;2022-10-16T14:32:52;18.70;;;9.73;;
69260;SDS011;56378;52.404;20.816;2022-10-16T14:35:37;15.65;;;9.60;;
69260;SDS011;56378;52.404;20.816;2022-10-16T14:38:05;18.20;;;9.57;;
69260;SDS011;56378;52.404;20.816;2022-10-16T14:40:45;14.90;;;9.23;;
69260;SDS011;56378;52.404;20.816;2022-10-16T14:43:20;19.10;;;9.30;;
69260;SDS011;56378;52.404;20.816;2022-10-16T14:45:51;16.77;;;9.23;;
69260;SDS011;56378;52.404;20.816;2022-10-16T14:48:21;15.82;;;9.68;;
69260;SDS011;56378;52.404;20.816;2022-10-16T14:50:47;18.47;;;9.60;;
69260;SDS011;56378;52.404;20.816;2022-10-16T14:53:13;16.75;;;9.90;;
69260;SDS011;56378;52.404;20.816;2022-10-16T14:55:40;16.88;;;10.27;;
69260;SDS011;56378;52.404;20.816;2022-10-16T14:58:27;17.37;;;9.77;;
69260;SDS011;56378;52.404;20.816;2022-10-16T15:00:52;16.33;;;9.15;;
69260;SDS011;56378;52.404;20.816;2022-10-16T15:03:18;15.23;;;9.30;;
69260;SDS011;56378;52.404;20.816;2022-10-16T15:05:43;17.33;;;9.43;;
69260;SDS011;56378;52.404;20.816;2022-10-16T15:08:09;17.98;;;8.98;;
69260;SDS011;56378;52.404;20.816;2022-10-16T15:10:42;15.33;;;8.83;;
69260;SDS011;56378;52.404;20.816;2022-10-16T15:13:11;15.52;;;8.70;;
69260;SDS011;56378;52.404;20.816;2022-10-16T15:15:44;17.38;;;9.32;;
69260;SDS011;56378;52.404;20.816;2022-10-16T15:18:14;15.37;;;8.73;;
69260;SDS011;56378;52.404;20.816;2022-10-16T15:20:47;12.82;;;8.40;;
69260;SDS011;56378;52.404;20.816;2022-10-16T15:23:17;13.88;;;8.27;;
69260;SDS011;56378;52.404;20.816;2022-10-16T15:25:45;14.95;;;8.57;;
69260;SDS011;56378;52.404;20.816;2022-10-16T15:28:13;16.38;;;9.30;;
69260;SDS011;56378;52.404;20.816;2022-10-16T15:30:45;14.10;;;8.87;;
69260;SDS011;56378;52.404;20.816;2022-10-16T15:33:15;13.38;;;8.45;;
69260;SDS011;56378;52.404;20.816;2022-10-16T15:35:57;13.52;;;8.45;;
69260;SDS011;56378;52.404;20.816;2022-10-16T15:38:23;16.92;;;8.32;;
69260;SDS011;56378;52.404;20.816;2022-10-16T15:40:51;13.40;;;8.02;;
69260;SDS011;56378;52.404;20.816;2022-10-16T15:43:16;13.50;;;8.00;;
69260;SDS011;56378;52.404;20.816;2022-10-16T15:45:43;12.57;;;7.68;;
69260;SDS011;56378;52.404;20.816;2022-10-16T15:48:12;18.95;;;8.40;;
69260;SDS011;56378;52.404;20.816;2022-10-16T15:50:38;16.48;;;8.60;;
69260;SDS011;56378;52.404;20.816;2022-10-16T15:53:05;13.45;;;7.88;;
69260;SDS011;56378;52.404;20.816;2022-10-16T15:55:30;13.87;;;8.00;;
69260;SDS011;56378;52.404;20.816;2022-10-16T15:57:56;11.93;;;7.32;;
69260;SDS011;56378;52.404;20.816;2022-10-16T16:00:22;14.30;;;8.10;;
69260;SDS011;56378;52.404;20.816;2022-10-16T16:02:51;12.68;;;7.22;;
69260;SDS011;56378;52.404;20.816;2022-10-16T16:05:18;12.20;;;7.60;;
69260;SDS011;56378;52.404;20.816;2022-10-16T16:07:45;12.48;;;7.65;;
69260;SDS011;56378;52.404;20.816;2022-10-16T16:10:11;13.57;;;8.23;;
69260;SDS011;56378;52.404;20.816;2022-10-16T16:12:37;13.82;;;8.02;;
69260;SDS011;56378;52.404;20.816;2022-10-16T16:15:04;14.35;;;8.30;;
69260;SDS011;56378;52.404;20.816;2022-10-16T16:17:31;14.00;;;8.87;;
69260;SDS011;56378;52.404;20.816;2022-10-16T16:19:57;15.88;;;9.85;;
69260;SDS011;56378;52.404;20.816;2022-10-16T16:22:25;18.45;;;10.98;;
69260;SDS011;56378;52.404;20.816;2022-10-16T16:24:53;17.95;;;10.73;;
69260;SDS011;56378;52.404;20.816;2022-10-16T16:27:18;19.35;;;11.20;;
69260;SDS011;56378;52.404;20.816;2022-10-16T16:32:51;17.88;;;11.45;;
69260;SDS011;56378;52.404;20.816;2022-10-16T16:35:18;18.17;;;11.60;;
69260;SDS011;56378;52.404;20.816;2022-10-16T16:37:46;17.45;;;10.85;;
69260;SDS011;56378;52.404;20.816;2022-10-16T16:40:17;18.80;;;11.57;;
69260;SDS011;56378;52.404;20.816;2022-10-16T16:42:43;19.52;;;11.50;;
69260;SDS011;56378;52.404;20.816;2022-10-16T16:45:08;21.73;;;12.43;;
69260;SDS011;56378;52.404;20.816;2022-10-16T16:47:34;24.07;;;12.87;;
69260;SDS011;56378;52.404;20.816;2022-10-16T16:50:00;22.77;;;12.25;;
69260;SDS011;56378;52.404;20.816;2022-10-16T16:52:29;19.48;;;11.68;;
69260;SDS011;56378;52.404;20.816;2022-10-16T16:54:57;19.90;;;11.00;;
69260;SDS011;56378;52.404;20.816;2022-10-16T16:57:23;20.45;;;10.98;;
69260;SDS011;56378;52.404;20.816;2022-10-16T16:59:52;16.95;;;9.95;;
69260;SDS011;56378;52.404;20.816;2022-10-16T17:02:18;17.17;;;9.87;;
69260;SDS011;56378;52.404;20.816;2022-10-16T17:04:43;16.70;;;10.00;;
69260;SDS011;56378;52.404;20.816;2022-10-16T17:07:09;16.23;;;8.77;;
69260;SDS011;56378;52.404;20.816;2022-10-16T17:09:35;18.37;;;10.20;;
69260;SDS011;56378;52.404;20.816;2022-10-16T17:12:00;14.60;;;8.98;;
69260;SDS011;56378;52.404;20.816;2022-10-16T17:14:26;15.00;;;9.10;;
69260;SDS011;56378;52.404;20.816;2022-10-16T17:16:52;16.88;;;9.70;;
69260;SDS011;56378;52.404;20.816;2022-10-16T17:19:18;16.40;;;9.20;;
69260;SDS011;56378;52.404;20.816;2022-10-16T17:21:45;16.73;;;9.38;;
69260;SDS011;56378;52.404;20.816;2022-10-16T17:24:14;16.02;;;9.77;;
69260;SDS011;56378;52.404;20.816;2022-10-16T17:26:40;18.93;;;9.93;;
69260;SDS011;56378;52.404;20.816;2022-10-16T17:29:12;18.52;;;10.60;;
69260;SDS011;56378;52.404;20.816;2022-10-16T17:31:38;19.50;;;10.82;;